Current | Forecast
Updated: 6:30 AM MSK on April 26, 2018
Observed at Stavropol', Russia
Temperature 57°F
Humidity 67%
Dew Point 46°F
Wind SW at 4 mph
Pressure 30.04 in (Steady)
Conditions Clear
Visibility -
UV N/A
Clouds
Yesterday's Maximum 68°F
Yesterday's Minimum 48°F approx.
Yesterday's Heating Degree Days 7 approx.
Sunrise5:08 AM MSK
Sunset7:09 PM MSK
Moon Rise3:07 PM MSK
Moon Set3:39 AM MSK
Moon PhaseMoon Phase
Waxing Gibbous
Raw METARMETAR URMT 260330Z 22002MPS CAVOK 14/08 Q1017 R25/010070 NOSIG RMK QFE724


Monday
. High: 66° F.
Tuesday
. High: 60° F.
Wednesday
. High: 55° F.
Thursday
. High: 53° F.
Friday
. High: 57° F.
Saturday
. High: 62° F.
Sunday
. High: 60° F.
Monday
. High: 59° F.

Units: English | Metric

Find the Weather for any City, State or Zipcode, or Country:

U.S. State List | Severe Weather | Tropical Storms | Ski Conditions
United States | Canada | Central America | South America | Asia | Europe | Australia | Africa | Islands

Weather Underground

© Copyright 2018
The Weather Company, LLC